Meteo Giornale » Osservazioni meteo Olanda » Deelen

ore: 07:55 - Osservazioni Meteo Deelen
Lat. 52° 4' N Lon. 5° 53' E Alt. 48 metri s.l.m.

poco_nuvoloso Europe/Amsterdam

16 °C

Poco Nuvoloso

Temp. 24 Ore

13 °C

21 °C

Nord-Ovest

9.3 Km/h

Dew point 15 °C

Umidità 93 %

Visibilità  10 Km

Il sole sorge alle ore 05:45

Il sole tramonta alle ore 21:41

Data e Ora Cielo e Fenomeni T °C DP °C Um. % Pres. hPa Vis. km Vento km/h
Oggi h: 07:55 poco_nuvoloso Poco Nuvoloso 16 15 93 1025 10 NO 9.3
Oggi h: 07:25 nuvoloso Nuvoloso 16 15 93 1020 10 N 5.5
Oggi h: 06:55 coperto Coperto 16 15 93 1020 10 N 5.5
Oggi h: 06:25 coperto_pioggia Pioggia Debole 16 15 93 1020 10 O/NO 7.4
Oggi h: 05:55 nuvoloso_piovaschi Debole Rovescio di Pioggia 16 15 93 1020 9 O/NO 9.3
Oggi h: 05:25 coperto_pioggia Pioggia Debole 16 15 93 1020 9 N/NO 7.4
Oggi h: 04:55 coperto_pioggia Pioviggine Leggera 15 15 100 1020 10 O/NO 7.4
Oggi h: 04:25 coperto Coperto 15 15 100 1020 10 O/SO 9.3
Oggi h: 03:55 coperto Coperto 14 14 100 1020 10 N 5.5
Oggi h: 03:25 molto_nuvoloso Molto Nuvoloso 14 13 93 1020 10 N 5.5
Oggi h: 02:55 molto_nuvoloso Molto Nuvoloso 14 14 100 1020 10 N 5.5
Oggi h: 02:25 foschia Foschia 14 13 93 1019 7 N 5.5
Oggi h: 01:55 coperto Coperto 14 13 93 1019 10 O 7.4
Oggi h: 01:25 coperto Coperto 13 13 100 1020 10 O/SO 9.3
Oggi h: 00:55 coperto Coperto 13 13 100 1019 10 O/SO 7.4
Oggi h: 00:25 molto_nuvoloso Molto Nuvoloso 14 13 93 1019 10 O 7.4
Ieri h: 23:55 sereno Sereno 13 12 93 1018 10 O/SO 7.4
Ieri h: 23:25 sereno Sereno 14 14 100 1018 10 N 5.5
Ieri h: 22:55 molto_nuvoloso Molto Nuvoloso 15 14 93 1018 10 O/NO 7.4
Ieri h: 22:25 poco_nuvoloso Poco Nuvoloso 15 13 87 1018 10 O 7.4
Ieri h: 21:55 poco_nuvoloso Poco Nuvoloso 16 14 87 1017 10 O/NO 7.4
Ieri h: 21:25 sereno Sereno 17 14 82 1017 10 O/NO 11.1
Ieri h: 20:55 sereno Sereno 18 13 72 1017 10 NO 14.8
Ieri h: 20:25 molto_nuvoloso Molto Nuvoloso 19 14 72 1017 10 O/NO 16.7
Ieri h: 19:55 poco_nuvoloso Poco Nuvoloso 20 15 72 1016 10 O/NO 16.7
Ieri h: 19:25 molto_nuvoloso Molto Nuvoloso 20 16 77 1016 10 NO 14.8
Ieri h: 18:55 coperto Coperto 20 17 82 1014 10 NO 14.8
Ieri h: 18:25 coperto_temporali Temporale 20 18 88 1017 10 O/SO 7.4
Ieri h: 17:55 coperto_temporali Temporale 19 17 88 1018 10 O/SO 9.3
Ieri h: 17:25 nuvoloso_temporali Temporale con Pioggia 18 17 93 1017 10 SO 13
Ieri h: 16:55 nuvoloso_temporali Temporale con Pioggia Debole 17 15 88 1008 10 NO 13
Ieri h: 16:25 coperto_temporali Temporale 21 18 82 1014 10 SO 18.5
Ieri h: 15:55 coperto_temporali Temporale 21 18 82 1011 10 SO 20.3
Ieri h: 15:25 nuvoloso Nuvoloso 21 19 88 1017 10 SO 16.7
Ieri h: 14:55 nuvoloso_temporali Temporale con Pioggia Debole 20 19 93 1017 10 O/SO 13
Ieri h: 14:25 nuvoloso_temporali Temporale con Pioggia Debole 19 18 93 1016 10 N 5.5
Ieri h: 13:55 nuvoloso_piovaschi Debole Rovescio di Pioggia 19 18 93 1013 10 SO 14.8
Ieri h: 13:25 coperto_temporali Temporale 19 19 100 1015 10 S/SO 9.3
Ieri h: 12:55 coperto_pioggia Pioviggine 19 18 93 1011 10 SO 9.3
Ieri h: 12:25 coperto_temporali Temporale 20 19 93 1019 10 O/SO 7.4
Ieri h: 11:55 nuvoloso_temporali Temporale con Pioggia Debole 20 18 88 1005 10 O/NO 13
Ieri h: 11:25 molto_nuvoloso Molto Nuvoloso 20 19 93 1022 10 O/SO 11.1
Ieri h: 10:55 nuvoloso_piovaschi Rovescio di Pioggia 19 18 93 1013 5 S/SO 18.5
Ieri h: 10:25 coperto_pioggia Pioggia Debole 20 18 88 1014 10 S/SO 13
Ieri h: 09:55 molto_nuvoloso Molto Nuvoloso 19 18 93 1016 10 S/SO 13
Ieri h: 09:25 coperto Coperto 19 18 93 1018 10 S/SO 11.1
Ieri h: 08:55 coperto Coperto 18 18 100 1014 10 S/SO 11.1